createdAt,value
2023-02-09T00:00:51.923Z,31.50
2023-02-09T00:05:56.714Z,31.40
2023-02-09T00:11:02.474Z,36.60
2023-02-09T00:16:10.414Z,35.05
2023-02-09T00:21:15.793Z,30.52
2023-02-09T00:26:20.645Z,28.98
2023-02-09T00:47:18.959Z,28.53
2023-02-09T00:52:23.972Z,30.15
2023-02-09T00:57:28.705Z,28.77
2023-02-09T01:02:36.210Z,26.50
2023-02-09T01:07:40.894Z,28.75
2023-02-09T01:12:46.265Z,25.63
2023-02-09T01:17:53.717Z,25.38
2023-02-09T01:22:58.292Z,24.20
2023-02-09T01:28:02.961Z,20.90
2023-02-09T01:33:10.321Z,22.33
2023-02-09T01:38:14.938Z,23.73
2023-02-09T01:43:19.705Z,31.70
2023-02-09T01:48:28.190Z,24.40
2023-02-09T01:53:32.860Z,19.02
2023-02-09T01:58:37.839Z,29.25
2023-02-09T02:03:45.214Z,22.75
2023-02-09T02:08:52.137Z,23.08
2023-02-09T02:13:56.792Z,47.22
2023-02-09T02:19:18.082Z,47.05
2023-02-09T02:24:41.264Z,27.08
2023-02-09T02:30:06.997Z,16.10
2023-02-09T02:35:19.215Z,17.88
2023-02-09T02:40:29.521Z,18.85
2023-02-09T02:50:45.098Z,25.40
2023-02-09T02:55:51.025Z,21.02
2023-02-09T03:00:57.656Z,22.27
2023-02-09T03:06:06.655Z,17.35
2023-02-09T03:11:13.255Z,18.55
2023-02-09T03:16:23.791Z,16.35
2023-02-09T03:21:35.080Z,17.60
2023-02-09T03:26:42.516Z,18.73
2023-02-09T03:31:47.840Z,18.92
2023-02-09T03:36:58.413Z,14.13
2023-02-09T03:42:03.117Z,30.33
2023-02-09T03:47:08.536Z,21.73
2023-02-09T03:52:16.853Z,16.85
2023-02-09T03:57:21.593Z,19.75
2023-02-09T04:02:26.272Z,20.58
2023-02-09T04:07:33.757Z,16.85
2023-02-09T04:12:38.469Z,16.42
2023-02-09T04:17:43.152Z,16.55
2023-02-09T04:22:50.345Z,20.45
2023-02-09T04:27:55.068Z,15.65
2023-02-09T04:32:59.772Z,18.88
2023-02-09T04:38:07.161Z,18.60
2023-02-09T04:43:11.820Z,17.08
2023-02-09T04:48:17.445Z,15.15
2023-02-09T04:53:29.725Z,21.07
2023-02-09T04:58:46.675Z,16.73
2023-02-09T05:03:51.641Z,23.80
2023-02-09T05:08:58.920Z,25.13
2023-02-09T05:14:03.583Z,23.02
2023-02-09T05:19:08.235Z,20.83
2023-02-09T05:24:15.441Z,23.95
2023-02-09T05:29:22.011Z,18.70
2023-02-09T05:34:27.165Z,18.70
2023-02-09T05:39:34.640Z,34.80
2023-02-09T05:44:39.356Z,34.13
2023-02-09T05:49:44.251Z,45.85
2023-02-09T05:54:52.352Z,37.97
2023-02-09T05:59:57.048Z,29.20
2023-02-09T06:05:06.171Z,23.85
2023-02-09T06:10:19.629Z,18.85
2023-02-09T06:15:24.382Z,25.35
2023-02-09T06:20:29.153Z,19.08
2023-02-09T06:25:36.677Z,22.92
2023-02-09T06:30:41.589Z,51.92
2023-02-09T06:35:46.474Z,140.85
2023-02-09T06:40:53.983Z,105.55
2023-02-09T06:45:58.777Z,33.30
2023-02-09T06:51:03.564Z,29.50
2023-02-09T06:56:11.256Z,22.40
2023-02-09T07:01:20.215Z,24.63
2023-02-09T07:06:24.883Z,21.92
2023-02-09T07:11:32.361Z,23.17
2023-02-09T07:16:37.015Z,29.38
2023-02-09T07:21:41.758Z,24.70
2023-02-09T07:26:49.155Z,29.00
2023-02-09T07:31:53.876Z,19.65
2023-02-09T07:36:58.698Z,23.02
2023-02-09T07:42:06.222Z,25.13
2023-02-09T07:47:11.114Z,22.13
2023-02-09T07:52:15.846Z,25.80
2023-02-09T07:57:23.247Z,25.85
2023-02-09T08:02:29.989Z,23.30
2023-02-09T08:07:34.807Z,23.13
2023-02-09T08:12:55.016Z,19.25
2023-02-09T08:18:02.336Z,18.05
2023-02-09T08:23:10.083Z,28.75
2023-02-09T08:28:17.770Z,20.17
2023-02-09T08:33:22.559Z,16.85
2023-02-09T08:38:27.420Z,15.95
2023-02-09T08:43:35.940Z,13.63
2023-02-09T08:48:41.633Z,10.77
2023-02-09T08:53:52.395Z,16.38
2023-02-09T08:58:59.862Z,17.67
2023-02-09T09:04:04.633Z,14.10
2023-02-09T09:09:09.415Z,17.00
2023-02-09T09:14:16.711Z,11.65
2023-02-09T09:19:21.425Z,11.27
2023-02-09T09:24:28.577Z,11.50
2023-02-09T09:29:37.119Z,17.95
2023-02-09T09:34:41.819Z,17.40
2023-02-09T09:39:46.555Z,12.40
2023-02-09T09:44:54.346Z,9.95
2023-02-09T09:49:59.371Z,11.23
2023-02-09T09:55:04.616Z,10.57
2023-02-09T10:00:18.749Z,14.07
2023-02-09T10:05:24.560Z,8.50
2023-02-09T10:10:35.264Z,9.10
2023-02-09T10:15:42.879Z,9.95
2023-02-09T10:20:49.280Z,8.00
2023-02-09T10:26:04.758Z,9.63
2023-02-09T10:31:18.307Z,9.77
2023-02-09T10:36:28.013Z,8.82
2023-02-09T10:41:33.682Z,16.03
2023-02-09T10:46:41.853Z,11.10
2023-02-09T10:51:46.863Z,12.20
2023-02-09T10:56:52.568Z,15.55
2023-02-09T11:02:02.045Z,9.60
2023-02-09T11:07:09.080Z,11.20
2023-02-09T11:12:14.375Z,12.77
2023-02-09T11:17:25.003Z,10.75
2023-02-09T11:22:38.513Z,7.80
2023-02-09T11:27:54.742Z,10.80
2023-02-09T11:33:05.906Z,7.80
2023-02-09T11:38:15.976Z,7.22
2023-02-09T11:43:23.086Z,12.88
2023-02-09T11:48:31.500Z,8.13
2023-02-09T11:53:39.725Z,9.10
2023-02-09T11:58:52.453Z,12.93
2023-02-09T12:04:04.276Z,11.40
2023-02-09T12:09:19.104Z,7.97
2023-02-09T12:14:27.255Z,9.75
2023-02-09T12:19:38.316Z,9.05
2023-02-09T12:24:43.616Z,9.05
2023-02-09T12:29:48.297Z,9.23
2023-02-09T12:34:57.228Z,14.50
2023-02-09T12:40:07.328Z,12.40
2023-02-09T12:45:26.851Z,8.60
2023-02-09T12:50:47.614Z,9.88
2023-02-09T13:00:58.180Z,7.68
2023-02-09T13:06:09.432Z,6.88
2023-02-09T13:11:21.583Z,11.82
2023-02-09T13:16:47.194Z,9.50
2023-02-09T13:22:00.843Z,13.85
2023-02-09T13:27:08.465Z,11.43
2023-02-09T13:32:20.566Z,14.63
2023-02-09T13:37:31.442Z,10.98
2023-02-09T13:42:39.038Z,9.07
2023-02-09T13:47:45.438Z,13.55
2023-02-09T13:52:53.752Z,12.27
2023-02-09T13:58:00.752Z,9.73
2023-02-09T14:03:12.494Z,9.18
2023-02-09T14:08:22.440Z,12.38
2023-02-09T14:13:30.171Z,10.52
2023-02-09T14:18:36.462Z,8.27
2023-02-09T14:23:43.934Z,8.55
2023-02-09T14:28:50.431Z,9.65
2023-02-09T14:33:56.895Z,9.48
2023-02-09T14:39:13.883Z,6.85
2023-02-09T14:44:22.320Z,12.05
2023-02-09T14:49:27.251Z,10.07
2023-02-09T14:54:36.135Z,11.57
2023-02-09T14:59:40.812Z,9.10
2023-02-09T15:04:45.715Z,13.85
2023-02-09T15:09:53.523Z,10.27
2023-02-09T15:15:01.116Z,11.50
2023-02-09T15:20:05.824Z,11.38
2023-02-09T15:25:15.872Z,12.25
2023-02-09T15:30:21.782Z,11.80
2023-02-09T15:35:28.134Z,9.18
2023-02-09T15:40:49.194Z,12.45
2023-02-09T15:46:06.343Z,12.98
2023-02-09T15:51:11.268Z,12.10
2023-02-09T15:56:19.183Z,12.90
2023-02-09T16:01:24.078Z,10.75
2023-02-09T16:06:28.896Z,11.57
2023-02-09T16:11:40.840Z,11.25
2023-02-09T16:16:46.758Z,13.52
2023-02-09T16:21:53.250Z,15.10
2023-02-09T16:27:00.649Z,18.17
2023-02-09T16:32:05.382Z,15.32
2023-02-09T16:37:10.172Z,11.93
2023-02-09T16:42:18.675Z,39.85
2023-02-09T16:47:25.474Z,28.60
2023-02-09T16:52:30.788Z,15.73
2023-02-09T16:57:38.161Z,17.67
2023-02-09T17:02:45.221Z,14.13
2023-02-09T17:07:54.902Z,12.48
2023-02-09T17:13:04.935Z,15.65
2023-02-09T17:18:11.026Z,18.25
2023-02-09T17:23:17.467Z,16.40
2023-02-09T17:28:28.044Z,24.50
2023-02-09T17:33:34.006Z,26.95
2023-02-09T17:38:41.129Z,38.15
2023-02-09T17:43:49.306Z,31.88
2023-02-09T17:48:54.057Z,32.40
2023-02-09T17:53:58.820Z,31.02
2023-02-09T17:59:08.489Z,32.25
2023-02-09T18:04:18.694Z,23.88
2023-02-09T18:09:23.525Z,21.25
2023-02-09T18:14:31.513Z,23.85
2023-02-09T18:19:36.788Z,36.58
2023-02-09T18:24:42.002Z,25.05
2023-02-09T18:29:49.497Z,23.48
2023-02-09T18:34:54.561Z,33.55
2023-02-09T18:39:59.272Z,26.67
2023-02-09T18:45:06.726Z,23.25
2023-02-09T18:50:12.021Z,19.52
2023-02-09T18:55:16.721Z,17.85
2023-02-09T19:00:24.678Z,19.80
2023-02-09T19:05:30.536Z,18.20
2023-02-09T19:10:36.218Z,41.13
2023-02-09T19:15:43.996Z,25.38
2023-02-09T19:20:49.095Z,28.52
2023-02-09T19:26:02.916Z,26.85
2023-02-09T19:31:13.080Z,25.80
2023-02-09T19:36:17.863Z,34.08
2023-02-09T19:41:23.837Z,25.85
2023-02-09T19:46:31.546Z,73.68
2023-02-09T19:51:36.381Z,29.98
2023-02-09T19:56:41.116Z,21.10
2023-02-09T20:01:48.603Z,20.50
2023-02-09T20:06:53.333Z,24.23
2023-02-09T20:11:58.041Z,24.58
2023-02-09T20:17:05.489Z,30.30
2023-02-09T20:22:10.247Z,31.85
2023-02-09T20:27:15.106Z,26.88
2023-02-09T20:32:22.443Z,32.40
2023-02-09T20:37:28.510Z,31.42
2023-02-09T20:42:45.598Z,32.42
2023-02-09T20:47:53.458Z,31.40
2023-02-09T20:52:58.763Z,30.75
2023-02-09T20:58:03.534Z,20.67
2023-02-09T21:03:11.072Z,24.40
2023-02-09T21:08:16.419Z,26.83
2023-02-09T21:13:21.241Z,47.75
2023-02-09T21:18:28.813Z,20.05
2023-02-09T21:23:33.641Z,26.02
2023-02-09T21:28:38.838Z,23.30
2023-02-09T21:33:46.210Z,21.45
2023-02-09T21:38:51.046Z,21.33
2023-02-09T21:43:55.833Z,22.50
2023-02-09T21:49:03.095Z,20.63
2023-02-09T21:54:07.894Z,18.60
2023-02-09T21:59:13.226Z,17.85
2023-02-09T22:04:20.655Z,17.08
2023-02-09T22:09:25.518Z,15.05
2023-02-09T22:14:30.328Z,14.68
2023-02-09T22:19:41.694Z,14.23
2023-02-09T22:24:46.477Z,41.38
2023-02-09T22:29:51.211Z,16.42
2023-02-09T22:34:58.618Z,15.75
2023-02-09T22:40:03.465Z,17.10
2023-02-09T22:45:08.783Z,13.55
2023-02-09T22:50:16.182Z,21.83
2023-02-09T22:55:21.060Z,24.48
2023-02-09T23:00:25.747Z,21.30
2023-02-09T23:05:33.225Z,19.30
2023-02-09T23:10:37.953Z,18.42
2023-02-09T23:15:42.673Z,17.35
2023-02-09T23:20:50.023Z,13.20
2023-02-09T23:31:06.010Z,18.13
2023-02-09T23:36:15.235Z,16.83
2023-02-09T23:41:20.744Z,11.48
2023-02-09T23:46:28.289Z,12.82
2023-02-09T23:51:36.806Z,13.30
2023-02-09T23:56:41.961Z,18.40
